Time,TemperatureF,DewpointF,PressureIn,WindDirection,WindDirectionDegrees,WindSpeedMPH,WindSpeedGustMPH,Humidity,HourlyPrecipIn,Conditions,Clouds,dailyrainin,SoftwareType,DateUTC
2013-10-19 00:14:00,51.0,-99.9,-100.00,WSW,251,14.0,19.0,-999,-99.99,,,-99.99,,2013-10-19 04:14:00,
2013-10-19 00:24:00,51.0,-99.9,-100.00,WSW,247,15.0,22.0,-999,-99.99,,,-99.99,,2013-10-19 04:24:00,
2013-10-19 00:34:00,51.0,-99.9,-100.00,WSW,247,15.0,22.0,-999,-99.99,,,-99.99,,2013-10-19 04:34:00,
2013-10-19 01:13:00,51.0,-99.9,-100.00,WSW,253,16.0,22.0,-999,-99.99,,,-99.99,,2013-10-19 05:13:00,
2013-10-19 01:23:00,51.0,-99.9,-100.00,WSW,245,17.0,20.0,-999,-99.99,,,-99.99,,2013-10-19 05:23:00,
2013-10-19 01:34:00,51.0,-99.9,-100.00,WSW,245,17.0,20.0,-999,-99.99,,,-99.99,,2013-10-19 05:34:00,
2013-10-19 02:12:00,51.0,-99.9,-100.00,WSW,253,16.0,22.0,-999,-99.99,,,-99.99,,2013-10-19 06:12:00,
2013-10-19 02:22:00,51.0,-99.9,-100.00,WSW,247,14.0,18.0,-999,-99.99,,,-99.99,,2013-10-19 06:22:00,
2013-10-19 02:42:00,51.0,-99.9,-100.00,WSW,250,16.0,21.0,-999,-99.99,,,-99.99,,2013-10-19 06:42:00,
2013-10-19 03:11:00,51.0,-99.9,-100.00,WSW,250,16.0,21.0,-999,-99.99,,,-99.99,,2013-10-19 07:11:00,
2013-10-19 03:22:00,51.0,-99.9,-100.00,WSW,256,13.0,20.0,-999,-99.99,,,-99.99,,2013-10-19 07:22:00,
2013-10-19 03:32:00,51.0,-99.9,-100.00,WSW,256,13.0,20.0,-999,-99.99,,,-99.99,,2013-10-19 07:32:00,
2013-10-19 03:53:00,51.0,-99.9,-100.00,WSW,254,14.0,20.0,-999,-99.99,,,-99.99,,2013-10-19 07:53:00,
2013-10-19 04:42:00,51.0,-99.9,-100.00,West,261,12.0,19.0,-999,-99.99,,,-99.99,,2013-10-19 08:42:00,
2013-10-19 04:52:00,51.0,-99.9,-100.00,West,261,14.0,22.0,-999,-99.99,,,-99.99,,2013-10-19 08:52:00,
2013-10-19 05:02:00,51.0,-99.9,-100.00,West,261,14.0,22.0,-999,-99.99,,,-99.99,,2013-10-19 09:02:00,
2013-10-19 05:22:00,51.0,-99.9,-100.00,West,272,8.0,15.0,-999,-99.99,,,-99.99,,2013-10-19 09:22:00,
2013-10-19 05:33:00,51.0,-99.9,-100.00,West,272,8.0,15.0,-999,-99.99,,,-99.99,,2013-10-19 09:33:00,
2013-10-19 05:54:00,51.0,-99.9,-100.00,West,265,11.0,19.0,-999,-99.99,,,-99.99,,2013-10-19 09:54:00,
2013-10-19 06:03:00,51.0,-99.9,-100.00,West,265,11.0,19.0,-999,-99.99,,,-99.99,,2013-10-19 10:03:00,
2013-10-19 06:23:00,50.0,-99.9,-100.00,WSW,240,8.0,15.0,-999,-99.99,,,-99.99,,2013-10-19 10:23:00,
2013-10-19 06:32:00,50.0,-99.9,-100.00,WSW,240,8.0,15.0,-999,-99.99,,,-99.99,,2013-10-19 10:32:00,
2013-10-19 06:42:00,50.0,-99.9,-100.00,WSW,240,8.0,15.0,-999,-99.99,,,-99.99,,2013-10-19 10:42:00,
2013-10-19 06:53:00,51.0,-99.9,-100.00,WSW,249,13.0,17.0,-999,-99.99,,,-99.99,,2013-10-19 10:53:00,
2013-10-19 07:03:00,51.0,-99.9,-100.00,WSW,249,13.0,17.0,-999,-99.99,,,-99.99,,2013-10-19 11:03:00,
2013-10-19 07:22:00,48.0,-99.9,-100.00,SSW,208,8.0,11.0,-999,-99.99,,,-99.99,,2013-10-19 11:22:00,
2013-10-19 07:52:00,49.0,-99.9,-100.00,SW,218,11.0,20.0,-999,-99.99,,,-99.99,,2013-10-19 11:52:00,
2013-10-19 08:12:00,46.0,-99.9,-100.00,SE,132,5.0,18.0,-999,-99.99,,,-99.99,,2013-10-19 12:12:00,
2013-10-19 08:22:00,44.0,-99.9,-100.00,SSE,160,5.0,11.0,-999,-99.99,,,-99.99,,2013-10-19 12:22:00,
2013-10-19 08:52:00,46.0,-99.9,-100.00,SE,132,5.0,18.0,-999,-99.99,,,-99.99,,2013-10-19 12:52:00,
2013-10-19 09:02:00,46.0,-99.9,-100.00,SE,132,5.0,18.0,-999,-99.99,,,-99.99,,2013-10-19 13:02:00,
2013-10-19 09:22:00,44.0,-99.9,-100.00,South,189,11.0,19.0,-999,-99.99,,,-99.99,,2013-10-19 13:22:00,
2013-10-19 09:32:00,44.0,-99.9,-100.00,South,189,11.0,19.0,-999,-99.99,,,-99.99,,2013-10-19 13:32:00,
2013-10-19 09:52:00,43.0,-99.9,-100.00,SE,145,4.0,11.0,-999,-99.99,,,-99.99,,2013-10-19 13:52:00,
2013-10-19 10:02:00,43.0,-99.9,-100.00,SE,145,4.0,11.0,-999,-99.99,,,-99.99,,2013-10-19 14:02:00,
2013-10-19 10:22:00,42.0,-99.9,-100.00,SSE,149,3.0,8.0,-999,-99.99,,,-99.99,,2013-10-19 14:22:00,
2013-10-19 10:32:00,42.0,-99.9,-100.00,SSE,149,3.0,8.0,-999,-99.99,,,-99.99,,2013-10-19 14:32:00,
2013-10-19 10:42:00,42.0,-99.9,-100.00,SSE,149,3.0,8.0,-999,-99.99,,,-99.99,,2013-10-19 14:42:00,
2013-10-19 10:53:00,43.0,-99.9,-100.00,SSE,158,4.0,27.0,-999,-99.99,,,-99.99,,2013-10-19 14:53:00,
2013-10-19 11:02:00,43.0,-99.9,-100.00,SSE,158,4.0,27.0,-999,-99.99,,,-99.99,,2013-10-19 15:02:00,
2013-10-19 11:44:00,42.0,-99.9,-100.00,ESE,110,3.0,8.0,-999,-99.99,,,-99.99,,2013-10-19 15:44:00,
2013-10-19 12:14:00,42.0,-99.9,-100.00,ESE,110,3.0,8.0,-999,-99.99,,,-99.99,,2013-10-19 16:14:00,
2013-10-19 13:13:00,51.0,-99.9,-100.00,SW,236,19.0,24.0,-999,-99.99,,,-99.99,,2013-10-19 17:13:00,
2013-10-19 13:22:00,52.0,-99.9,-100.00,SW,229,15.0,24.0,-999,-99.99,,,-99.99,,2013-10-19 17:22:00,
2013-10-19 13:34:00,52.0,-99.9,-100.00,SW,229,15.0,24.0,-999,-99.99,,,-99.99,,2013-10-19 17:34:00,
2013-10-19 13:52:00,52.0,-99.9,-100.00,SW,233,17.0,23.0,-999,-99.99,,,-99.99,,2013-10-19 17:52:00,
2013-10-19 14:13:00,53.0,-99.9,-100.00,SW,222,18.0,27.0,-999,-99.99,,,-99.99,,2013-10-19 18:13:00,
2013-10-19 14:22:00,53.0,-99.9,-100.00,SW,225,18.0,26.0,-999,-99.99,,,-99.99,,2013-10-19 18:22:00,
2013-10-19 14:32:00,53.0,-99.9,-100.00,SW,225,18.0,26.0,-999,-99.99,,,-99.99,,2013-10-19 18:32:00,
2013-10-19 14:42:00,53.0,-99.9,-100.00,SW,225,18.0,26.0,-999,-99.99,,,-99.99,,2013-10-19 18:42:00,
2013-10-19 14:52:00,53.0,-99.9,-100.00,SW,222,18.0,27.0,-999,-99.99,,,-99.99,,2013-10-19 18:52:00,
2013-10-19 15:12:00,53.0,-99.9,-100.00,SW,216,20.0,26.0,-999,-99.99,,,-99.99,,2013-10-19 19:12:00,
2013-10-19 15:22:00,53.0,-99.9,-100.00,SW,226,20.0,23.0,-999,-99.99,,,-99.99,,2013-10-19 19:22:00,
2013-10-19 15:32:00,53.0,-99.9,-100.00,SW,226,20.0,23.0,-999,-99.99,,,-99.99,,2013-10-19 19:32:00,
2013-10-19 15:52:00,53.0,-99.9,-100.00,SW,216,20.0,26.0,-999,-99.99,,,-99.99,,2013-10-19 19:52:00,
2013-10-19 16:12:00,53.0,-99.9,-100.00,SW,215,15.0,26.0,-999,-99.99,,,-99.99,,2013-10-19 20:12:00,
2013-10-19 16:22:00,52.0,-99.9,-100.00,WSW,243,16.0,31.0,-999,-99.99,,,-99.99,,2013-10-19 20:22:00,
2013-10-19 16:32:00,52.0,-99.9,-100.00,WSW,243,16.0,31.0,-999,-99.99,,,-99.99,,2013-10-19 20:32:00,
2013-10-19 16:52:00,52.0,-99.9,-100.00,SSW,211,15.0,31.0,-999,-99.99,,,-99.99,,2013-10-19 20:52:00,
2013-10-19 17:22:00,53.0,-99.9,-100.00,SW,216,23.0,30.0,-999,-99.99,,,-99.99,,2013-10-19 21:22:00,
2013-10-19 17:44:00,53.0,-99.9,-100.00,SW,224,22.0,29.0,-999,-99.99,,,-99.99,,2013-10-19 21:44:00,
2013-10-19 18:24:00,53.0,-99.9,-100.00,SW,216,22.0,29.0,-999,-99.99,,,-99.99,,2013-10-19 22:24:00,
2013-10-19 18:34:00,53.0,-99.9,-100.00,SW,216,22.0,29.0,-999,-99.99,,,-99.99,,2013-10-19 22:34:00,
2013-10-19 18:53:00,53.0,-99.9,-100.00,SW,227,23.0,29.0,-999,-99.99,,,-99.99,,2013-10-19 22:53:00,
2013-10-19 19:03:00,53.0,-99.9,-100.00,SW,227,23.0,29.0,-999,-99.99,,,-99.99,,2013-10-19 23:03:00,
2013-10-19 19:23:00,53.0,-99.9,-100.00,SW,224,22.0,27.0,-999,-99.99,,,-99.99,,2013-10-19 23:23:00,
2013-10-19 19:34:00,53.0,-99.9,-100.00,SW,224,22.0,27.0,-999,-99.99,,,-99.99,,2013-10-19 23:34:00,
2013-10-19 19:42:00,53.0,-99.9,-100.00,SW,224,22.0,27.0,-999,-99.99,,,-99.99,,2013-10-19 23:42:00,
2013-10-19 19:53:00,53.0,-99.9,-100.00,SW,222,24.0,0.0,-999,-99.99,,,-99.99,,2013-10-19 23:53:00,
2013-10-19 20:02:00,53.0,-99.9,-100.00,SW,222,24.0,0.0,-999,-99.99,,,-99.99,,2013-10-20 00:02:00,
2013-10-19 20:23:00,53.0,-99.9,-100.00,SW,226,18.0,32.0,-999,-99.99,,,-99.99,,2013-10-20 00:23:00,
2013-10-19 20:42:00,53.0,-99.9,-100.00,SW,219,24.0,29.0,-999,-99.99,,,-99.99,,2013-10-20 00:42:00,
2013-10-19 20:52:00,53.0,-99.9,-100.00,SW,219,24.0,29.0,-999,-99.99,,,-99.99,,2013-10-20 00:52:00,
2013-10-19 21:22:00,50.0,-99.9,-100.00,SW,230,22.0,34.0,-999,-99.99,,,-99.99,,2013-10-20 01:22:00,
2013-10-19 21:42:00,51.0,-99.9,-100.00,WSW,241,25.0,32.0,-999,-99.99,,,-99.99,,2013-10-20 01:42:00,
2013-10-19 22:12:00,51.0,-99.9,-100.00,WSW,241,25.0,32.0,-999,-99.99,,,-99.99,,2013-10-20 02:12:00,
2013-10-19 22:22:00,51.0,-99.9,-100.00,SW,222,24.0,30.0,-999,-99.99,,,-99.99,,2013-10-20 02:22:00,
2013-10-19 22:32:00,51.0,-99.9,-100.00,SW,222,24.0,30.0,-999,-99.99,,,-99.99,,2013-10-20 02:32:00,
2013-10-19 22:42:00,51.0,-99.9,-100.00,SW,222,24.0,30.0,-999,-99.99,,,-99.99,,2013-10-20 02:42:00,
2013-10-19 22:52:00,51.0,-99.9,-100.00,SW,221,21.0,30.0,-999,-99.99,,,-99.99,,2013-10-20 02:52:00,
2013-10-19 23:02:00,51.0,-99.9,-100.00,SW,221,21.0,30.0,-999,-99.99,,,-99.99,,2013-10-20 03:02:00,
2013-10-19 23:22:00,52.0,-99.9,-100.00,SW,223,22.0,27.0,-999,-99.99,,,-99.99,,2013-10-20 03:22:00,
2013-10-19 23:35:00,52.0,-99.9,-100.00,SW,223,22.0,27.0,-999,-99.99,,,-99.99,,2013-10-20 03:35:00,
2013-10-19 23:55:00,52.0,-99.9,-100.00,SW,223,22.0,30.0,-999,-99.99,,,-99.99,,2013-10-20 03:55:00,